createdAt,value
2019-01-24T00:02:12.494Z,93064.25
2019-01-24T00:04:43.713Z,93059.24
2019-01-24T00:07:15.184Z,93050.58
2019-01-24T00:09:46.278Z,93040.52
2019-01-24T00:12:17.618Z,93045.94
2019-01-24T00:14:49.006Z,93051.49
2019-01-24T00:17:20.330Z,93045.89
2019-01-24T00:19:51.534Z,93046.08
2019-01-24T00:22:22.852Z,93028.81
2019-01-24T00:24:53.954Z,93031.89
2019-01-24T00:27:25.267Z,93031.89
2019-01-24T00:29:56.390Z,93010.42
2019-01-24T00:32:28.684Z,93002.23
2019-01-24T00:34:59.896Z,93000.72
2019-01-24T00:37:31.072Z,92997.48
2019-01-24T00:40:02.308Z,92990.62
2019-01-24T00:42:33.629Z,93000.92
2019-01-24T00:45:05.612Z,93014.55
2019-01-24T00:47:36.749Z,93020.68
2019-01-24T00:50:09.008Z,92996.24
2019-01-24T00:52:40.416Z,92989.75
2019-01-24T00:55:13.162Z,92983.78
2019-01-24T00:57:44.675Z,92990.73
2019-01-24T01:00:21.496Z,92996.79
2019-01-24T01:02:53.010Z,93001.25
2019-01-24T01:05:24.384Z,93002.50
2019-01-24T01:07:55.551Z,92993.54
2019-01-24T01:10:26.803Z,92989.16
2019-01-24T01:12:58.090Z,92994.81
2019-01-24T01:15:29.430Z,92996.44
2019-01-24T01:18:00.629Z,92981.25
2019-01-24T01:20:31.901Z,92976.05
2019-01-24T01:23:03.321Z,92978.90
2019-01-24T01:25:34.530Z,92980.38
2019-01-24T01:28:06.133Z,92973.98
2019-01-24T01:30:37.521Z,92966.02
2019-01-24T01:33:08.625Z,92960.83
2019-01-24T01:35:39.750Z,92952.55
2019-01-24T01:38:11.279Z,92954.34
2019-01-24T01:40:42.434Z,92949.27
2019-01-24T01:43:13.627Z,92944.66
2019-01-24T01:45:44.689Z,92942.21
2019-01-24T01:48:15.837Z,92949.98
2019-01-24T01:50:47.187Z,92952.88
2019-01-24T01:53:18.482Z,92956.42
2019-01-24T01:55:50.150Z,92946.62
2019-01-24T01:58:21.239Z,92952.56
2019-01-24T02:00:52.469Z,92948.53
2019-01-24T02:03:23.935Z,92956.34
2019-01-24T02:05:55.186Z,92955.59
2019-01-24T02:08:26.396Z,92959.27
2019-01-24T02:10:57.396Z,92959.27
2019-01-24T02:13:28.586Z,92954.95
2019-01-24T02:15:59.824Z,92955.50
2019-01-24T02:18:31.123Z,92961.64
2019-01-24T02:21:02.413Z,92962.77
2019-01-24T02:23:33.649Z,92925.64
2019-01-24T02:26:05.185Z,92934.97
2019-01-24T02:28:36.567Z,92940.61
2019-01-24T02:31:07.771Z,92940.61
2019-01-24T02:33:38.986Z,92959.34
2019-01-24T02:36:11.147Z,92946.44
2019-01-24T02:38:42.458Z,92958.63
2019-01-24T02:41:13.777Z,92958.63
2019-01-24T02:43:44.949Z,92960.63
2019-01-24T02:46:16.301Z,92953.83
2019-01-24T02:48:47.515Z,92959.54
2019-01-24T02:51:18.811Z,92963.44
2019-01-24T02:53:50.032Z,92957.77
2019-01-24T02:56:21.148Z,92964.80
2019-01-24T02:58:52.560Z,92965.58
2019-01-24T03:01:23.928Z,92965.58
2019-01-24T03:03:55.260Z,92960.28
2019-01-24T03:06:26.378Z,92950.52
2019-01-24T03:08:57.595Z,92946.34
2019-01-24T03:11:28.647Z,92956.66
2019-01-24T03:13:59.908Z,92956.66
2019-01-24T03:16:31.194Z,92941.19
2019-01-24T03:19:02.504Z,92933.95
2019-01-24T03:21:33.982Z,92923.64
2019-01-24T03:24:05.277Z,92924.55
2019-01-24T03:26:36.550Z,92912.17
2019-01-24T03:29:07.688Z,92924.62
2019-01-24T03:31:38.813Z,92917.59
2019-01-24T03:34:09.979Z,92930.72
2019-01-24T03:36:41.124Z,92926.90
2019-01-24T03:39:12.530Z,92918.89
2019-01-24T03:41:43.632Z,92913.66
2019-01-24T03:44:14.943Z,92912.75
2019-01-24T03:46:46.050Z,92912.37
2019-01-24T03:49:17.312Z,92917.56
2019-01-24T03:51:48.576Z,92913.46
2019-01-24T03:54:19.898Z,92910.65
2019-01-24T03:56:51.102Z,92894.20
2019-01-24T03:59:22.446Z,92894.74
2019-01-24T04:01:53.655Z,92904.71
2019-01-24T04:04:25.069Z,92892.44
2019-01-24T04:06:57.618Z,92902.03
2019-01-24T04:09:28.824Z,92910.11
2019-01-24T04:12:00.131Z,92910.11
2019-01-24T04:14:31.456Z,92905.22
2019-01-24T04:17:02.704Z,92909.16
2019-01-24T04:19:33.952Z,92909.09
2019-01-24T04:22:05.284Z,92910.17
2019-01-24T04:24:36.563Z,92911.73
2019-01-24T04:27:07.870Z,92915.09
2019-01-24T04:29:39.085Z,92905.59
2019-01-24T04:32:10.296Z,92908.38
2019-01-24T04:34:41.746Z,92904.34
2019-01-24T04:37:12.945Z,92912.65
2019-01-24T04:39:45.331Z,92907.31
2019-01-24T04:42:16.631Z,92911.73
2019-01-24T04:44:47.833Z,92903.72
2019-01-24T04:47:18.997Z,92903.72
2019-01-24T04:49:50.358Z,92909.50
2019-01-24T04:52:21.580Z,92922.58
2019-01-24T04:54:52.904Z,92924.89
2019-01-24T04:57:24.202Z,92924.89
2019-01-24T04:59:55.335Z,92927.02
2019-01-24T05:02:26.563Z,92927.23
2019-01-24T05:04:57.973Z,92941.41
2019-01-24T05:07:29.141Z,92941.41
2019-01-24T05:10:02.156Z,92940.04
2019-01-24T05:12:33.626Z,92940.04
2019-01-24T05:15:05.310Z,92938.05
2019-01-24T05:17:36.447Z,92948.20
2019-01-24T05:20:09.558Z,92939.59
2019-01-24T05:22:40.804Z,92942.44
2019-01-24T05:25:13.697Z,92947.84
2019-01-24T05:27:46.794Z,92947.00
2019-01-24T05:30:21.227Z,92947.00
2019-01-24T05:32:52.374Z,92949.79
2019-01-24T05:35:23.769Z,92948.23
2019-01-24T05:37:55.372Z,92951.05
2019-01-24T05:40:27.778Z,92950.06
2019-01-24T05:42:59.000Z,92943.52
2019-01-24T05:45:30.119Z,92945.08
2019-01-24T05:48:01.492Z,92946.64
2019-01-24T05:50:32.511Z,92948.73
2019-01-24T05:53:03.929Z,92948.73
2019-01-24T05:55:35.041Z,92947.33
2019-01-24T05:58:06.159Z,92942.47
2019-01-24T06:00:42.883Z,92949.69
2019-01-24T06:03:14.254Z,92947.27
2019-01-24T06:05:45.569Z,92950.63
2019-01-24T06:08:16.615Z,92953.78
2019-01-24T06:10:47.828Z,92949.91
2019-01-24T06:13:19.110Z,92953.30
2019-01-24T06:15:50.241Z,92949.48
2019-01-24T06:18:21.448Z,92936.60
2019-01-24T06:20:52.623Z,92936.60
2019-01-24T06:23:23.788Z,92947.48
2019-01-24T06:25:55.084Z,92955.28
2019-01-24T06:28:26.262Z,92950.37
2019-01-24T06:30:57.580Z,92957.95
2019-01-24T06:33:28.991Z,92957.95
2019-01-24T06:36:00.348Z,92968.03
2019-01-24T06:38:31.541Z,92979.10
2019-01-24T06:41:02.841Z,92966.92
2019-01-24T06:43:34.086Z,92966.92
2019-01-24T06:46:05.485Z,92972.41
2019-01-24T06:48:36.715Z,92982.19
2019-01-24T06:51:07.885Z,92985.49
2019-01-24T06:53:39.325Z,92984.27
2019-01-24T06:56:10.727Z,92998.70
2019-01-24T06:58:41.832Z,93006.98
2019-01-24T07:01:13.290Z,92999.23
2019-01-24T07:03:44.692Z,92999.98
2019-01-24T07:06:15.982Z,93005.72
2019-01-24T07:08:47.115Z,93005.72
2019-01-24T07:11:18.418Z,92989.96
2019-01-24T07:13:49.596Z,93002.41
2019-01-24T07:16:20.928Z,93003.50
2019-01-24T07:18:52.060Z,93008.42
2019-01-24T07:21:23.264Z,93009.77
2019-01-24T07:23:54.546Z,93009.77
2019-01-24T07:26:25.760Z,93012.08
2019-01-24T07:28:57.007Z,93002.80
2019-01-24T07:31:28.218Z,93008.53
2019-01-24T07:33:59.472Z,93002.64
2019-01-24T07:36:30.826Z,93002.32
2019-01-24T07:39:02.063Z,92997.42
2019-01-24T07:41:34.403Z,93003.16
2019-01-24T07:44:05.759Z,93003.69
2019-01-24T07:46:36.811Z,93009.23
2019-01-24T07:49:09.122Z,93012.80
2019-01-24T07:51:40.404Z,93005.14
2019-01-24T07:54:11.659Z,93005.44
2019-01-24T07:56:42.960Z,93016.55
2019-01-24T07:59:14.173Z,93021.44
2019-01-24T08:01:45.349Z,93016.28
2019-01-24T08:04:16.724Z,93021.17
2019-01-24T08:06:47.945Z,93027.11
2019-01-24T08:09:19.185Z,93027.11
2019-01-24T08:11:50.455Z,93026.13
2019-01-24T08:14:21.623Z,93028.27
2019-01-24T08:16:52.775Z,93029.27
2019-01-24T08:19:24.043Z,93032.47
2019-01-24T08:21:55.358Z,93026.81
2019-01-24T08:24:26.621Z,93030.17
2019-01-24T08:27:01.295Z,93030.95
2019-01-24T08:29:32.722Z,93024.23
2019-01-24T08:32:04.039Z,93025.52
2019-01-24T08:34:35.474Z,93039.73
2019-01-24T08:37:06.872Z,93041.52
2019-01-24T08:39:38.096Z,93042.99
2019-01-24T08:42:10.476Z,93043.47
2019-01-24T08:44:41.628Z,93044.89
2019-01-24T08:47:12.826Z,93056.52
2019-01-24T08:49:44.167Z,93056.52
2019-01-24T08:52:15.640Z,93067.69
2019-01-24T08:54:46.851Z,93068.62
2019-01-24T08:57:17.985Z,93072.63
2019-01-24T08:59:49.186Z,93078.72
2019-01-24T09:02:20.697Z,93074.66
2019-01-24T09:04:52.032Z,93074.66
2019-01-24T09:07:23.332Z,93095.00
2019-01-24T09:09:57.415Z,93090.89
2019-01-24T09:12:30.339Z,93090.08
2019-01-24T09:15:01.583Z,93091.16
2019-01-24T09:17:32.962Z,93095.78
2019-01-24T09:20:04.562Z,93090.91
2019-01-24T09:22:35.846Z,93084.75
2019-01-24T09:25:07.509Z,93088.19
2019-01-24T09:27:38.869Z,93092.19
2019-01-24T09:30:13.186Z,93091.62
2019-01-24T09:32:44.633Z,93089.09
2019-01-24T09:35:16.187Z,93094.72
2019-01-24T09:37:47.361Z,93086.48
2019-01-24T09:40:19.085Z,93079.02
2019-01-24T09:42:50.537Z,93093.98
2019-01-24T09:45:26.828Z,93104.23
2019-01-24T09:48:00.545Z,93102.70
2019-01-24T09:50:32.217Z,93096.70
2019-01-24T09:53:03.531Z,93091.84
2019-01-24T09:55:34.864Z,93091.84
2019-01-24T09:58:06.675Z,93082.55
2019-01-24T10:00:38.515Z,93077.39
2019-01-24T10:03:09.587Z,93063.98
2019-01-24T10:05:40.752Z,93053.64
2019-01-24T10:08:12.061Z,93072.28
2019-01-24T10:10:43.226Z,93082.89
2019-01-24T10:13:14.475Z,93076.92
2019-01-24T10:15:45.811Z,93066.33
2019-01-24T10:18:21.617Z,93076.27
2019-01-24T10:20:49.971Z,93063.89
2019-01-24T10:23:21.174Z,93063.09
2019-01-24T10:25:52.544Z,93062.11
2019-01-24T10:28:23.794Z,93057.75
2019-01-24T10:30:54.965Z,93061.16
2019-01-24T10:33:26.252Z,93051.36
2019-01-24T10:35:57.519Z,93050.58
2019-01-24T10:38:28.848Z,93058.58
2019-01-24T10:41:00.125Z,93054.64
2019-01-24T10:43:31.467Z,93048.21
2019-01-24T10:46:02.778Z,93044.38
2019-01-24T10:48:34.059Z,93043.06
2019-01-24T10:51:05.575Z,93044.20
2019-01-24T10:53:36.997Z,93047.87
2019-01-24T10:56:08.339Z,93049.17
2019-01-24T10:58:39.534Z,93048.08
2019-01-24T11:01:10.735Z,93048.48
2019-01-24T11:03:42.076Z,93038.30
2019-01-24T11:06:13.245Z,93027.48
2019-01-24T11:08:44.572Z,93030.54
2019-01-24T11:11:15.819Z,93035.98
2019-01-24T11:13:46.957Z,93048.50
2019-01-24T11:16:18.125Z,93045.39
2019-01-24T11:18:49.428Z,93053.33
2019-01-24T11:21:20.742Z,93049.69
2019-01-24T11:23:52.066Z,93050.91
2019-01-24T11:26:23.131Z,93062.33
2019-01-24T11:28:54.435Z,93064.98
2019-01-24T11:31:25.717Z,93063.45
2019-01-24T11:33:56.814Z,93062.59
2019-01-24T11:36:28.096Z,93063.22
2019-01-24T11:38:59.355Z,93063.87
2019-01-24T11:41:30.638Z,93066.77
2019-01-24T11:44:01.934Z,93077.42
2019-01-24T11:46:33.026Z,93076.38
2019-01-24T11:49:04.561Z,93087.53
2019-01-24T11:51:35.647Z,93092.17
2019-01-24T11:54:07.025Z,93079.23
2019-01-24T11:56:38.228Z,93076.09
2019-01-24T11:59:09.497Z,93084.91
2019-01-24T12:01:40.698Z,93092.91
2019-01-24T12:04:12.014Z,93092.37
2019-01-24T12:06:43.176Z,93100.17
2019-01-24T12:09:14.688Z,93099.11
2019-01-24T12:11:45.898Z,93104.84
2019-01-24T12:14:17.078Z,93106.91
2019-01-24T12:16:48.216Z,93100.69
2019-01-24T12:19:19.488Z,93096.56
2019-01-24T12:21:50.536Z,93097.89
2019-01-24T12:24:21.772Z,93098.42
2019-01-24T12:26:53.018Z,93099.69
2019-01-24T12:29:24.058Z,93100.72
2019-01-24T12:31:55.227Z,93107.98
2019-01-24T12:34:26.459Z,93106.14
2019-01-24T12:36:57.750Z,93105.34
2019-01-24T12:39:29.020Z,93106.10
2019-01-24T12:42:00.030Z,93107.94
2019-01-24T12:44:31.331Z,93111.59
2019-01-24T12:47:02.586Z,93116.50
2019-01-24T12:49:33.961Z,93115.46
2019-01-24T12:52:05.219Z,93118.07
2019-01-24T12:54:36.389Z,93121.22
2019-01-24T12:57:07.713Z,93120.17
2019-01-24T12:59:38.975Z,93121.22
2019-01-24T13:02:10.214Z,93122.77
2019-01-24T13:04:41.435Z,93118.87
2019-01-24T13:07:18.385Z,93120.70
2019-01-24T13:09:45.498Z,93117.31
2019-01-24T13:12:16.900Z,93120.70
2019-01-24T13:14:48.067Z,93124.08
2019-01-24T13:17:19.279Z,93132.10
2019-01-24T13:19:50.722Z,93138.30
2019-01-24T13:22:21.862Z,93141.37
2019-01-24T13:24:53.136Z,93145.17
2019-01-24T13:27:24.371Z,93150.52
2019-01-24T13:29:55.549Z,93165.69
2019-01-24T13:32:26.650Z,93172.74
2019-01-24T13:34:57.981Z,93182.98
2019-01-24T13:37:29.177Z,93186.33
2019-01-24T13:40:00.614Z,93186.33
2019-01-24T13:42:31.810Z,93192.52
2019-01-24T13:45:03.127Z,93187.23
2019-01-24T13:47:34.582Z,93199.28
2019-01-24T13:50:07.805Z,93205.62
2019-01-24T13:52:39.228Z,93211.04
2019-01-24T13:55:10.567Z,93211.04
2019-01-24T13:57:41.886Z,93215.16
2019-01-24T14:00:18.912Z,93218.63
2019-01-24T14:02:52.305Z,93219.07
2019-01-24T14:05:23.607Z,93226.02
2019-01-24T14:07:54.900Z,93225.84
2019-01-24T14:10:26.249Z,93219.18
2019-01-24T14:12:57.536Z,93225.90
2019-01-24T14:15:28.804Z,93234.26
2019-01-24T14:18:00.055Z,93237.34
2019-01-24T14:20:31.436Z,93235.67
2019-01-24T14:23:02.778Z,93247.16
2019-01-24T14:25:34.060Z,93248.73
2019-01-24T14:28:05.838Z,93250.48
2019-01-24T14:30:37.437Z,93257.56
2019-01-24T14:33:08.700Z,93259.00
2019-01-24T14:35:40.086Z,93260.70
2019-01-24T14:38:11.214Z,93266.95
2019-01-24T14:40:42.585Z,93271.90
2019-01-24T14:43:13.972Z,93268.04
2019-01-24T14:45:45.187Z,93263.00
2019-01-24T14:48:16.307Z,93263.28
2019-01-24T14:50:47.524Z,93268.52
2019-01-24T14:53:18.927Z,93274.25
2019-01-24T14:55:50.360Z,93278.30
2019-01-24T14:58:21.636Z,93282.53
2019-01-24T15:01:00.463Z,93289.80
2019-01-24T15:03:31.843Z,93293.70
2019-01-24T15:06:03.344Z,93299.88
2019-01-24T15:08:34.467Z,93306.23
2019-01-24T15:11:06.025Z,93304.30
2019-01-24T15:13:37.196Z,93306.69
2019-01-24T15:16:08.548Z,93309.87
2019-01-24T15:18:39.720Z,93317.64
2019-01-24T15:21:11.071Z,93315.25
2019-01-24T15:23:42.078Z,93311.39
2019-01-24T15:26:13.354Z,93314.50
2019-01-24T15:28:44.608Z,93321.75
2019-01-24T15:31:15.913Z,93328.58
2019-01-24T15:33:47.286Z,93339.03
2019-01-24T15:36:18.342Z,93344.17
2019-01-24T15:38:49.553Z,93348.70
2019-01-24T15:41:20.825Z,93349.39
2019-01-24T15:43:52.081Z,93354.34
2019-01-24T15:46:23.193Z,93368.27
2019-01-24T15:48:54.214Z,93364.41
2019-01-24T15:51:25.399Z,93361.27
2019-01-24T15:53:56.727Z,93368.66
2019-01-24T15:56:28.108Z,93379.05
2019-01-24T15:58:59.360Z,93385.61
2019-01-24T16:01:30.538Z,93385.61
2019-01-24T16:04:01.830Z,93382.71
2019-01-24T16:06:33.167Z,93387.70
2019-01-24T16:09:06.141Z,93399.81
2019-01-24T16:11:37.322Z,93412.26
2019-01-24T16:14:08.664Z,93401.41
2019-01-24T16:16:39.974Z,93405.44
2019-01-24T16:19:11.386Z,93414.53
2019-01-24T16:21:42.487Z,93427.38
2019-01-24T16:24:13.953Z,93421.88
2019-01-24T16:26:45.396Z,93426.02
2019-01-24T16:29:16.489Z,93424.27
2019-01-24T16:31:47.801Z,93439.13
2019-01-24T16:34:19.110Z,93442.38
2019-01-24T16:36:50.440Z,93450.81
2019-01-24T16:39:22.666Z,93457.17
2019-01-24T16:41:53.993Z,93457.16
2019-01-24T16:44:25.248Z,93463.95
2019-01-24T16:46:56.720Z,93467.42
2019-01-24T16:49:27.866Z,93474.80
2019-01-24T16:51:59.275Z,93474.80
2019-01-24T16:54:30.502Z,93472.58
2019-01-24T16:57:01.747Z,93472.58
2019-01-24T16:59:33.337Z,93474.11
2019-01-24T17:02:04.589Z,93484.80
2019-01-24T17:04:35.736Z,93490.36
2019-01-24T17:07:07.158Z,93488.70
2019-01-24T17:09:38.355Z,93488.70
2019-01-24T17:12:09.572Z,93501.81
2019-01-24T17:14:40.834Z,93498.83
2019-01-24T17:17:12.066Z,93506.47
2019-01-24T17:19:43.101Z,93506.47
2019-01-24T17:22:14.178Z,93516.32
2019-01-24T17:24:45.371Z,93513.39
2019-01-24T17:27:16.775Z,93505.63
2019-01-24T17:29:47.951Z,93502.15
2019-01-24T17:32:19.218Z,93502.15
2019-01-24T17:34:50.375Z,93506.27
2019-01-24T17:37:21.762Z,93530.42
2019-01-24T17:39:54.270Z,93521.16
2019-01-24T17:42:25.734Z,93521.16
2019-01-24T17:44:57.066Z,93522.04
2019-01-24T17:47:28.289Z,93522.04
2019-01-24T17:49:59.592Z,93534.08
2019-01-24T17:52:30.945Z,93534.08
2019-01-24T17:55:02.127Z,93578.67
2019-01-24T17:57:33.527Z,93544.13
2019-01-24T18:00:07.134Z,93561.77
2019-01-24T18:02:38.376Z,93552.06
2019-01-24T18:05:11.502Z,93551.31
2019-01-24T18:07:43.056Z,93565.97
2019-01-24T18:10:20.457Z,93565.97
2019-01-24T18:12:51.978Z,93572.12
2019-01-24T18:15:25.390Z,93572.97
2019-01-24T18:17:56.931Z,93572.62
2019-01-24T18:20:30.603Z,93578.05
2019-01-24T18:23:05.253Z,93580.70
2019-01-24T18:25:36.681Z,93582.64
2019-01-24T18:28:11.461Z,93582.64
2019-01-24T18:30:43.070Z,93592.59
2019-01-24T18:33:14.613Z,93589.16
2019-01-24T18:35:46.050Z,93589.16
2019-01-24T18:38:17.386Z,93591.25
2019-01-24T18:40:48.761Z,93591.25
2019-01-24T18:43:23.250Z,93610.32
2019-01-24T18:45:56.958Z,93610.32
2019-01-24T18:48:28.220Z,93612.70
2019-01-24T18:50:59.418Z,93613.99
2019-01-24T18:53:30.788Z,93608.63
2019-01-24T18:56:03.105Z,93616.44
2019-01-24T18:58:35.084Z,93611.23
2019-01-24T19:01:06.463Z,93611.23
2019-01-24T19:03:37.873Z,93611.73
2019-01-24T19:06:09.258Z,93609.66
2019-01-24T19:08:45.825Z,93618.84
2019-01-24T19:11:13.496Z,93611.30
2019-01-24T19:13:44.965Z,93606.88
2019-01-24T19:16:16.255Z,93607.47
2019-01-24T19:18:47.494Z,93607.47
2019-01-24T19:21:18.763Z,93620.74
2019-01-24T19:23:50.103Z,93619.31
2019-01-24T19:26:21.495Z,93619.31
2019-01-24T19:28:53.047Z,93616.52
2019-01-24T19:31:24.313Z,93618.78
2019-01-24T19:33:55.660Z,93623.40
2019-01-24T19:36:26.986Z,93610.56
2019-01-24T19:38:58.309Z,93612.17
2019-01-24T19:41:29.465Z,93625.23
2019-01-24T19:44:00.866Z,93625.23
2019-01-24T19:46:32.209Z,93642.03
2019-01-24T19:49:04.788Z,93641.20
2019-01-24T19:51:36.162Z,93639.47
2019-01-24T19:54:07.554Z,93641.13
2019-01-24T19:56:38.780Z,93634.44
2019-01-24T19:59:09.911Z,93633.45
2019-01-24T20:01:41.120Z,93650.66
2019-01-24T20:04:13.448Z,93643.42
2019-01-24T20:06:44.691Z,93647.07
2019-01-24T20:09:15.972Z,93647.07
2019-01-24T20:11:47.277Z,93645.54
2019-01-24T20:14:18.623Z,93641.33
2019-01-24T20:16:49.945Z,93645.33
2019-01-24T20:19:21.218Z,93651.16
2019-01-24T20:21:52.383Z,93665.01
2019-01-24T20:24:23.739Z,93662.80
2019-01-24T20:26:55.062Z,93676.22
2019-01-24T20:29:26.404Z,93676.22
2019-01-24T20:31:57.918Z,93669.22
2019-01-24T20:34:29.130Z,93678.89
2019-01-24T20:37:00.553Z,93679.03
2019-01-24T20:39:31.858Z,93679.03
2019-01-24T20:42:03.131Z,93684.95
2019-01-24T20:44:34.383Z,93692.75
2019-01-24T20:47:05.856Z,93695.03
2019-01-24T20:49:37.191Z,93695.03
2019-01-24T20:52:08.745Z,93698.67
2019-01-24T20:54:39.979Z,93695.22
2019-01-24T20:57:11.157Z,93707.80
2019-01-24T20:59:42.601Z,93704.06
2019-01-24T21:02:13.781Z,93713.42
2019-01-24T21:04:45.078Z,93720.25
2019-01-24T21:07:16.514Z,93739.30
2019-01-24T21:09:47.943Z,93739.30
2019-01-24T21:12:19.099Z,93738.01
2019-01-24T21:14:50.655Z,93740.38
2019-01-24T21:17:21.929Z,93744.52
2019-01-24T21:19:53.392Z,93744.52
2019-01-24T21:22:24.857Z,93769.95
2019-01-24T21:24:56.102Z,93740.04
2019-01-24T21:27:28.879Z,93748.70
2019-01-24T21:30:00.257Z,93762.11
2019-01-24T21:32:31.391Z,93762.11
2019-01-24T21:35:02.608Z,93766.55
2019-01-24T21:37:33.916Z,93771.12
2019-01-24T21:40:06.344Z,93771.12
2019-01-24T21:42:37.664Z,93766.20
2019-01-24T21:45:12.645Z,93776.80
2019-01-24T21:47:44.091Z,93784.09
2019-01-24T21:50:17.713Z,93798.16
2019-01-24T21:52:49.128Z,93798.16
2019-01-24T21:55:21.537Z,93802.92
2019-01-24T21:57:54.028Z,93798.97
2019-01-24T22:00:26.743Z,93803.73
2019-01-24T22:02:58.255Z,93803.73
2019-01-24T22:05:30.913Z,93814.94
2019-01-24T22:08:02.224Z,93811.86
2019-01-24T22:10:33.570Z,93793.95
2019-01-24T22:13:05.383Z,93793.95
2019-01-24T22:15:36.704Z,93790.55
2019-01-24T22:18:08.601Z,93795.44
2019-01-24T22:20:39.943Z,93792.81
2019-01-24T22:23:11.116Z,93782.55
2019-01-24T22:25:42.432Z,93790.40
2019-01-24T22:28:13.660Z,93788.72
2019-01-24T22:30:49.100Z,93790.73
2019-01-24T22:33:20.509Z,93790.73
2019-01-24T22:35:51.676Z,93786.30
2019-01-24T22:38:23.032Z,93771.19
2019-01-24T22:40:54.302Z,93759.63
2019-01-24T22:43:25.631Z,93763.58
2019-01-24T22:45:56.972Z,93765.11
2019-01-24T22:48:28.128Z,93757.05
2019-01-24T22:50:59.458Z,93754.72
2019-01-24T22:53:30.604Z,93754.72
2019-01-24T22:56:01.906Z,93757.00
2019-01-24T22:58:33.230Z,93767.44
2019-01-24T23:01:13.459Z,93767.44
2019-01-24T23:03:48.494Z,93765.16
2019-01-24T23:06:20.081Z,93766.16
2019-01-24T23:08:51.282Z,93766.16
2019-01-24T23:11:23.660Z,93777.40
2019-01-24T23:13:54.927Z,93778.92
2019-01-24T23:16:26.302Z,93778.92
2019-01-24T23:18:57.613Z,93778.72
2019-01-24T23:21:28.933Z,93768.77
2019-01-24T23:24:00.281Z,93791.77
2019-01-24T23:26:31.688Z,93791.77
2019-01-24T23:29:03.065Z,93796.71
2019-01-24T23:31:34.446Z,93811.48
2019-01-24T23:34:06.330Z,93790.33
2019-01-24T23:36:37.585Z,93801.06
2019-01-24T23:39:10.789Z,93801.06
2019-01-24T23:41:42.038Z,93789.41
2019-01-24T23:44:13.253Z,93783.39
2019-01-24T23:46:44.532Z,93780.22
2019-01-24T23:49:15.770Z,93798.24
2019-01-24T23:51:47.163Z,93834.48
2019-01-24T23:54:18.475Z,93830.47
2019-01-24T23:56:49.615Z,93833.56
2019-01-24T23:59:21.008Z,93829.54
